Southport, Florida
Current Conditions -  °F | °C
As of 10:53 AM on Thursday 27 Nov 2014 (Local Time) from KECP Reporting Station
Clear Clear  
Wind Chill: 57°   Ceiling: Unl
Heat Index: 57°   Visibility: 10mi
Dew Point: 35°   Wind: 13mph
Humidity: 44%   Direction: 300°WNW
Pressure: 30.33"   Gusts: NA
Location:  30.3555°N, 85.7317°W
Report Text: KECP 271653Z 30011KT 10SM CLR 14/02 A3033 RMK AO2 SLP282 T01390017
Loading
Personal Weather Stations






























Interactive Weather Map New forecast layout! Learn more

10-Day Weather Forecast

Advertisements
Track Severe Weather on mobile